Pacific Dawn — 2AGH7 — position and weather

sailwx.info

Track history (hours):
 
Tides and Currents Weather Stations Pressure Air Temp Water Temp Dewpoint Dewpoint Depression Visibility Wind Speed Wind Dir Waves Ship Positions

Pacific Dawn

Last reported at 2017-Sep-25 11:51 UTC. Time now 2017-Sep-26 04:06 UTC.
Position S 22°24' E 166°47'.

Length 245 m; draft 8.3 m.

Type: Passenger vessel. MMSI: 235059368.

Date/timePositionNaut miles runAvg speedWind from/ knotsBaromVisibWave heightAir tempDewpointWater temp
2017-Sep-25 11:51S 22°24' E 166°47'617.6
2017-Sep-25 11:30S 22°23' E 166°40'917.7
2017-Sep-25 11:00S 22°21' E 166°31'612.6
2017-Sep-25 10:31S 22°17' E 166°26'1 1.8
2017-Sep-25 09:59S 22°16' E 166°26'0 0.0
2017-Sep-25 09:29S 22°16' E 166°26'0 0.0
2017-Sep-25 08:59S 22°16' E 166°26'0 0.0
2017-Sep-25 08:29S 22°16' E 166°26'0 0.0
2017-Sep-25 07:59S 22°16' E 166°26'0 0.0
2017-Sep-25 07:26S 22°16' E 166°26'0 0.0
2017-Sep-25 06:59S 22°16' E 166°26'0 0.0
2017-Sep-25 06:29S 22°16' E 166°26'0 0.0
2017-Sep-25 06:00S 22°16' E 166°26'0 0.0
2017-Sep-25 05:30S 22°16' E 166°26'0 0.0
2017-Sep-25 05:00S 22°16' E 166°26'0 0.0
2017-Sep-25 04:30S 22°16' E 166°26'0 0.0
2017-Sep-25 04:00S 22°16' E 166°26'3 5.7
2017-Sep-25 03:30S 22°18' E 166°24'815.7
2017-Sep-25 03:00S 22°21' E 166°16'713.4
2017-Sep-25 02:30S 22°26' E 166°11'12218.7
2017-Sep-24 20:00S 23°06' E 164°06'20316.9 070 / 101017.910.8 22.017.224.2
2017-Sep-24 08:00S 24°12' E 160°36'393 8.4 060 / 101017.310.8 21.016.024.2
2017-Sep-22 09:00S 25°24' E 153°30'18215.1 340 / 201017.510.8 23.018.325.3
2017-Sep-21 21:00S 22°48' E 151°48'6917.3 020 / 181014.010.8 23.519.324.6
2017-Sep-21 17:00S 22°00' E 150°54'123 5.1 040 / 351014.110.8 22.518.625.9
2017-Sep-20 17:00S 20°36' E 149°18'11514.3 360 / 81015.110.8 22.018.925.9
2017-Sep-20 09:00S 21°54' E 150°48'17114.2 050 / 171015.510.8 22.017.225.5
2017-Sep-19 21:00S 23°54' E 153°00'16816.4 270 / 121015.110.8 23.014.626.0
2017-Sep-19 10:46S 26°41' E 153°13'811.1
2017-Sep-19 10:06S 26°48' E 153°10'115.1
2017-Sep-19 10:00S 26°49' E 153°09'714.4
2017-Sep-19 09:30S 26°56' E 153°12'815.2
2017-Sep-19 09:00S 27°03' E 153°16'714.5
2017-Sep-19 08:30S 27°09' E 153°21'714.7
2017-Sep-19 08:00S 27°15' E 153°18'815.1
2017-Sep-19 07:30S 27°20' E 153°11'5 9.4
2017-Sep-19 07:00S 27°24' E 153°09'3 6.8
2017-Sep-19 06:30S 27°27' E 153°06'2 3.7
2017-Sep-19 06:00S 27°26' E 153°04'0 0.0
2017-Sep-19 00:17S 27°26' E 153°04'0 0.0
2017-Sep-19 00:00S 27°26' E 153°04'0 0.0
2017-Sep-18 23:30S 27°26' E 153°04'0 0.0
2017-Sep-18 23:00S 27°26' E 153°04'0 0.0
2017-Sep-18 22:29S 27°26' E 153°04'0 0.0
2017-Sep-18 21:50S 27°26' E 153°04'0 0.0
2017-Sep-18 21:24S 27°26' E 153°04'0 0.0
2017-Sep-18 20:52S 27°26' E 153°04'0 0.0
2017-Sep-18 20:28S 27°26' E 153°04'0 0.0
2017-Sep-18 20:00S 27°26' E 153°04'0 0.0
2017-Sep-18 19:31S 27°26' E 153°04'3 5.1
2017-Sep-18 19:00S 27°26' E 153°07'3 6.9
2017-Sep-18 18:30S 27°23' E 153°09'611.2
2017-Sep-18 18:01S 27°19' E 153°13'816.6
2017-Sep-18 17:30S 27°14' E 153°20'816.2
2017-Sep-18 17:00S 27°06' E 153°19'815.8
2017-Sep-18 16:30S 26°59' E 153°14'816.7
2017-Sep-18 16:00S 26°52' E 153°09'1011.6
2017-Sep-18 15:10S 26°42' E 153°12'2 9.4
2017-Sep-18 14:59S 26°42' E 153°13'510.6
2017-Sep-18 14:29S 26°41' E 153°19'510.7
2017-Sep-18 13:59S 26°41' E 153°25'52 3.1
2017-Sep-17 21:00S 26°18' E 154°18'4812.1 090 / 201022.310.8 20.010.925.1
2017-Sep-17 17:00S 25°30' E 154°24'47 5.9 120 / 201022.610.8 20.014.925.1
2017-Sep-17 09:00S 26°12' E 154°00'49 4.1 140 / 201024.210.8 20.014.925.9
2017-Sep-16 21:00S 25°24' E 154°12'32 8.0 320 / 91022.910.8 22.011.325.6
2017-Sep-16 17:00S 25°54' E 154°00'5810.5 300 / 161020.210.8 21.012.225.9
2017-Sep-16 11:28S 26°41' E 153°23'511.4
2017-Sep-16 11:00S 26°42' E 153°17'510.2
2017-Sep-16 10:30S 26°43' E 153°11'713.8
2017-Sep-16 10:01S 26°49' E 153°09'815.8
2017-Sep-16 09:31S 26°57' E 153°13'815.8
2017-Sep-16 09:01S 27°03' E 153°18'815.7
2017-Sep-16 08:31S 27°11' E 153°21'815.3
2017-Sep-16 08:01S 27°17' E 153°15'714.1
2017-Sep-16 07:30S 27°22' E 153°10'4 7.7
2017-Sep-16 07:00S 27°25' E 153°08'3 6.4
2017-Sep-16 06:30S 27°27' E 153°05'1 0.1
2017-Sep-15 23:54S 27°26' E 153°04'0 0.0
2017-Sep-15 23:30S 27°26' E 153°04'0 0.0
2017-Sep-15 23:00S 27°26' E 153°04'0 0.0
2017-Sep-15 22:30S 27°26' E 153°04'0 0.0
2017-Sep-15 22:00S 27°26' E 153°04'0 0.0
2017-Sep-15 21:27S 27°26' E 153°04'0 0.0
2017-Sep-15 21:00S 27°26' E 153°04'0 0.0
2017-Sep-15 20:27S 27°26' E 153°04'0 0.0
2017-Sep-15 19:51S 27°26' E 153°04'0 0.2
2017-Sep-15 19:31S 27°26' E 153°04'2 4.9
2017-Sep-15 19:00S 27°26' E 153°07'3 6.9
2017-Sep-15 18:30S 27°23' E 153°09'510.4
2017-Sep-15 18:01S 27°19' E 153°12'815.1
2017-Sep-15 17:31S 27°15' E 153°19'815.9
2017-Sep-15 17:01S 27°07' E 153°20'815.9
2017-Sep-15 16:30S 27°00' E 153°14'917.3
2017-Sep-15 16:01S 26°53' E 153°10'1014.0
2017-Sep-15 15:17S 26°43' E 153°11'311.7
2017-Sep-15 15:00S 26°41' E 153°15'  
Track history (hours):
 
Tides and Currents Weather Stations Pressure Air Temp Water Temp Dewpoint Dewpoint Depression Visibility Wind Speed Wind Dir Waves Ship Positions

Pacific Dawn

Last reported at 2017-Sep-25 11:51 UTC. Time now 2017-Sep-26 04:06 UTC.
Position S 22°24' E 166°47'.

Length 245 m; draft 8.3 m.

Type: Passenger vessel. MMSI: 235059368.

Date/timePositionNaut miles runAvg speedWind from/ knotsBaromVisibWave heightAir tempDewpointWater temp
2017-Sep-25 11:51S 22°24' E 166°47'617.6
2017-Sep-25 11:30S 22°23' E 166°40'917.7
2017-Sep-25 11:00S 22°21' E 166°31'612.6
2017-Sep-25 10:31S 22°17' E 166°26'1 1.8
2017-Sep-25 09:59S 22°16' E 166°26'0 0.0
2017-Sep-25 09:29S 22°16' E 166°26'0 0.0
2017-Sep-25 08:59S 22°16' E 166°26'0 0.0
2017-Sep-25 08:29S 22°16' E 166°26'0 0.0
2017-Sep-25 07:59S 22°16' E 166°26'0 0.0
2017-Sep-25 07:26S 22°16' E 166°26'0 0.0
2017-Sep-25 06:59S 22°16' E 166°26'0 0.0
2017-Sep-25 06:29S 22°16' E 166°26'0 0.0
2017-Sep-25 06:00S 22°16' E 166°26'0 0.0
2017-Sep-25 05:30S 22°16' E 166°26'0 0.0
2017-Sep-25 05:00S 22°16' E 166°26'0 0.0
2017-Sep-25 04:30S 22°16' E 166°26'0 0.0
2017-Sep-25 04:00S 22°16' E 166°26'3 5.7
2017-Sep-25 03:30S 22°18' E 166°24'815.7
2017-Sep-25 03:00S 22°21' E 166°16'713.4
2017-Sep-25 02:30S 22°26' E 166°11'12218.7
2017-Sep-24 20:00S 23°06' E 164°06'20316.9 070 / 101017.910.8 22.017.224.2
2017-Sep-24 08:00S 24°12' E 160°36'393 8.4 060 / 101017.310.8 21.016.024.2
2017-Sep-22 09:00S 25°24' E 153°30'18215.1 340 / 201017.510.8 23.018.325.3
2017-Sep-21 21:00S 22°48' E 151°48'6917.3 020 / 181014.010.8 23.519.324.6
2017-Sep-21 17:00S 22°00' E 150°54'123 5.1 040 / 351014.110.8 22.518.625.9
2017-Sep-20 17:00S 20°36' E 149°18'11514.3 360 / 81015.110.8 22.018.925.9
2017-Sep-20 09:00S 21°54' E 150°48'17114.2 050 / 171015.510.8 22.017.225.5
2017-Sep-19 21:00S 23°54' E 153°00'16816.4 270 / 121015.110.8 23.014.626.0
2017-Sep-19 10:46S 26°41' E 153°13'811.1
2017-Sep-19 10:06S 26°48' E 153°10'115.1
2017-Sep-19 10:00S 26°49' E 153°09'714.4
2017-Sep-19 09:30S 26°56' E 153°12'815.2
2017-Sep-19 09:00S 27°03' E 153°16'714.5
2017-Sep-19 08:30S 27°09' E 153°21'714.7
2017-Sep-19 08:00S 27°15' E 153°18'815.1
2017-Sep-19 07:30S 27°20' E 153°11'5 9.4
2017-Sep-19 07:00S 27°24' E 153°09'3 6.8
2017-Sep-19 06:30S 27°27' E 153°06'2 3.7
2017-Sep-19 06:00S 27°26' E 153°04'0 0.0
2017-Sep-19 00:17S 27°26' E 153°04'0 0.0
2017-Sep-19 00:00S 27°26' E 153°04'0 0.0
2017-Sep-18 23:30S 27°26' E 153°04'0 0.0
2017-Sep-18 23:00S 27°26' E 153°04'0 0.0
2017-Sep-18 22:29S 27°26' E 153°04'0 0.0
2017-Sep-18 21:50S 27°26' E 153°04'0 0.0
2017-Sep-18 21:24S 27°26' E 153°04'0 0.0
2017-Sep-18 20:52S 27°26' E 153°04'0 0.0
2017-Sep-18 20:28S 27°26' E 153°04'0 0.0
2017-Sep-18 20:00S 27°26' E 153°04'0 0.0
2017-Sep-18 19:31S 27°26' E 153°04'3 5.1
2017-Sep-18 19:00S 27°26' E 153°07'3 6.9
2017-Sep-18 18:30S 27°23' E 153°09'611.2
2017-Sep-18 18:01S 27°19' E 153°13'816.6
2017-Sep-18 17:30S 27°14' E 153°20'816.2
2017-Sep-18 17:00S 27°06' E 153°19'815.8
2017-Sep-18 16:30S 26°59' E 153°14'816.7
2017-Sep-18 16:00S 26°52' E 153°09'1011.6
2017-Sep-18 15:10S 26°42' E 153°12'2 9.4
2017-Sep-18 14:59S 26°42' E 153°13'510.6
2017-Sep-18 14:29S 26°41' E 153°19'510.7
2017-Sep-18 13:59S 26°41' E 153°25'52 3.1
2017-Sep-17 21:00S 26°18' E 154°18'4812.1 090 / 201022.310.8 20.010.925.1
2017-Sep-17 17:00S 25°30' E 154°24'47 5.9 120 / 201022.610.8 20.014.925.1
2017-Sep-17 09:00S 26°12' E 154°00'49 4.1 140 / 201024.210.8 20.014.925.9
2017-Sep-16 21:00S 25°24' E 154°12'32 8.0 320 / 91022.910.8 22.011.325.6
2017-Sep-16 17:00S 25°54' E 154°00'5810.5 300 / 161020.210.8 21.012.225.9
2017-Sep-16 11:28S 26°41' E 153°23'511.4
2017-Sep-16 11:00S 26°42' E 153°17'510.2
2017-Sep-16 10:30S 26°43' E 153°11'713.8
2017-Sep-16 10:01S 26°49' E 153°09'815.8
2017-Sep-16 09:31S 26°57' E 153°13'815.8
2017-Sep-16 09:01S 27°03' E 153°18'815.7
2017-Sep-16 08:31S 27°11' E 153°21'815.3
2017-Sep-16 08:01S 27°17' E 153°15'714.1
2017-Sep-16 07:30S 27°22' E 153°10'4 7.7
2017-Sep-16 07:00S 27°25' E 153°08'3 6.4
2017-Sep-16 06:30S 27°27' E 153°05'1 0.1
2017-Sep-15 23:54S 27°26' E 153°04'0 0.0
2017-Sep-15 23:30S 27°26' E 153°04'0 0.0
2017-Sep-15 23:00S 27°26' E 153°04'0 0.0
2017-Sep-15 22:30S 27°26' E 153°04'0 0.0
2017-Sep-15 22:00S 27°26' E 153°04'0 0.0
2017-Sep-15 21:27S 27°26' E 153°04'0 0.0
2017-Sep-15 21:00S 27°26' E 153°04'0 0.0
2017-Sep-15 20:27S 27°26' E 153°04'0 0.0
2017-Sep-15 19:51S 27°26' E 153°04'0 0.2
2017-Sep-15 19:31S 27°26' E 153°04'2 4.9
2017-Sep-15 19:00S 27°26' E 153°07'3 6.9
2017-Sep-15 18:30S 27°23' E 153°09'510.4
2017-Sep-15 18:01S 27°19' E 153°12'815.1
2017-Sep-15 17:31S 27°15' E 153°19'815.9
2017-Sep-15 17:01S 27°07' E 153°20'815.9
2017-Sep-15 16:30S 27°00' E 153°14'917.3
2017-Sep-15 16:01S 26°53' E 153°10'1014.0
2017-Sep-15 15:17S 26°43' E 153°11'311.7
2017-Sep-15 15:00S 26°41' E 153°15'  

Dump ship's entire track history